sensor_id;sensor_type;location;lat;lon;timestamp;pressure;altitude;pressure_sealevel;temperature
45393;BMP280;31129;44.810;10.334;2022-12-20T00:02:10;102246.97;;;6.95
45393;BMP280;31129;44.810;10.334;2022-12-20T00:04:35;102240.66;;;7.09
45393;BMP280;31129;44.810;10.334;2022-12-20T00:07:01;102239.16;;;6.97
45393;BMP280;31129;44.810;10.334;2022-12-20T00:09:27;102243.88;;;6.93
45393;BMP280;31129;44.810;10.334;2022-12-20T00:11:52;102246.59;;;6.93
45393;BMP280;31129;44.810;10.334;2022-12-20T00:14:18;102235.34;;;6.91
45393;BMP280;31129;44.810;10.334;2022-12-20T00:16:43;102236.44;;;6.97
45393;BMP280;31129;44.810;10.334;2022-12-20T00:19:10;102241.94;;;6.93
45393;BMP280;31129;44.810;10.334;2022-12-20T00:21:36;102231.88;;;6.90
45393;BMP280;31129;44.810;10.334;2022-12-20T00:24:04;102216.66;;;7.00
45393;BMP280;31129;44.810;10.334;2022-12-20T00:26:33;102220.53;;;7.03
45393;BMP280;31129;44.810;10.334;2022-12-20T00:28:59;102220.59;;;6.96
45393;BMP280;31129;44.810;10.334;2022-12-20T00:31:27;102221.72;;;6.98
45393;BMP280;31129;44.810;10.334;2022-12-20T00:33:54;102217.44;;;7.01
45393;BMP280;31129;44.810;10.334;2022-12-20T00:36:22;102215.13;;;6.99
45393;BMP280;31129;44.810;10.334;2022-12-20T00:38:49;102219.44;;;6.97
45393;BMP280;31129;44.810;10.334;2022-12-20T00:41:18;102210.06;;;7.05
45393;BMP280;31129;44.810;10.334;2022-12-20T00:43:44;102205.88;;;6.97
45393;BMP280;31129;44.810;10.334;2022-12-20T00:46:11;102214.41;;;6.88
45393;BMP280;31129;44.810;10.334;2022-12-20T00:48:37;102203.50;;;6.99
45393;BMP280;31129;44.810;10.334;2022-12-20T00:51:05;102202.69;;;7.02
45393;BMP280;31129;44.810;10.334;2022-12-20T00:53:31;102216.63;;;7.04
45393;BMP280;31129;44.810;10.334;2022-12-20T00:55:58;102206.56;;;7.01
45393;BMP280;31129;44.810;10.334;2022-12-20T00:58:24;102205.13;;;6.92
45393;BMP280;31129;44.810;10.334;2022-12-20T01:00:50;102212.09;;;6.93
45393;BMP280;31129;44.810;10.334;2022-12-20T01:03:15;102224.91;;;6.89
45393;BMP280;31129;44.810;10.334;2022-12-20T01:05:52;102209.00;;;6.88
45393;BMP280;31129;44.810;10.334;2022-12-20T01:08:18;102195.84;;;6.90
45393;BMP280;31129;44.810;10.334;2022-12-20T01:10:44;102194.66;;;6.91
45393;BMP280;31129;44.810;10.334;2022-12-20T01:13:09;102196.59;;;6.87
45393;BMP280;31129;44.810;10.334;2022-12-20T01:15:35;102195.91;;;6.79
45393;BMP280;31129;44.810;10.334;2022-12-20T01:18:00;102202.94;;;6.70
45393;BMP280;31129;44.810;10.334;2022-12-20T01:20:26;102193.94;;;6.83
45393;BMP280;31129;44.810;10.334;2022-12-20T01:22:52;102199.31;;;6.87
45393;BMP280;31129;44.810;10.334;2022-12-20T01:25:17;102211.78;;;6.81
45393;BMP280;31129;44.810;10.334;2022-12-20T01:27:43;102205.19;;;6.82
45393;BMP280;31129;44.810;10.334;2022-12-20T01:30:09;102206.72;;;6.83
45393;BMP280;31129;44.810;10.334;2022-12-20T01:32:34;102204.00;;;6.83
45393;BMP280;31129;44.810;10.334;2022-12-20T01:35:00;102192.78;;;6.84
45393;BMP280;31129;44.810;10.334;2022-12-20T01:37:26;102201.00;;;6.70
45393;BMP280;31129;44.810;10.334;2022-12-20T01:39:51;102185.78;;;6.83
45393;BMP280;31129;44.810;10.334;2022-12-20T01:42:17;102198.28;;;6.70
45393;BMP280;31129;44.810;10.334;2022-12-20T01:47:08;102171.91;;;6.74
45393;BMP280;31129;44.810;10.334;2022-12-20T01:49:40;102162.56;;;6.79
45393;BMP280;31129;44.810;10.334;2022-12-20T01:54:38;102164.03;;;6.87
45393;BMP280;31129;44.810;10.334;2022-12-20T01:57:10;102164.50;;;6.82
45393;BMP280;31129;44.810;10.334;2022-12-20T01:59:39;102167.59;;;6.84
45393;BMP280;31129;44.810;10.334;2022-12-20T02:02:08;102156.41;;;6.75
45393;BMP280;31129;44.810;10.334;2022-12-20T02:04:35;102155.91;;;6.87
45393;BMP280;31129;44.810;10.334;2022-12-20T02:07:01;102160.56;;;6.86
45393;BMP280;31129;44.810;10.334;2022-12-20T02:09:28;102155.53;;;6.85
45393;BMP280;31129;44.810;10.334;2022-12-20T02:12:20;102152.03;;;6.88
45393;BMP280;31129;44.810;10.334;2022-12-20T02:30:42;102153.28;;;6.73
45393;BMP280;31129;44.810;10.334;2022-12-20T02:33:11;102153.25;;;6.83
45393;BMP280;31129;44.810;10.334;2022-12-20T02:35:38;102158.25;;;6.85
45393;BMP280;31129;44.810;10.334;2022-12-20T02:43:28;102146.31;;;6.79
45393;BMP280;31129;44.810;10.334;2022-12-20T02:46:14;102135.78;;;6.84
45393;BMP280;31129;44.810;10.334;2022-12-20T02:48:41;102132.38;;;6.77
45393;BMP280;31129;44.810;10.334;2022-12-20T02:51:07;102134.66;;;6.82
45393;BMP280;31129;44.810;10.334;2022-12-20T02:53:35;102126.94;;;6.77
45393;BMP280;31129;44.810;10.334;2022-12-20T02:59:03;102121.53;;;6.77
45393;BMP280;31129;44.810;10.334;2022-12-20T03:01:34;102118.91;;;6.63
45393;BMP280;31129;44.810;10.334;2022-12-20T03:04:02;102120.44;;;6.64
45393;BMP280;31129;44.810;10.334;2022-12-20T03:06:29;102109.56;;;6.71
45393;BMP280;31129;44.810;10.334;2022-12-20T03:08:57;102111.06;;;6.75
45393;BMP280;31129;44.810;10.334;2022-12-20T03:11:26;102120.81;;;6.66
45393;BMP280;31129;44.810;10.334;2022-12-20T03:13:52;102125.06;;;6.67
45393;BMP280;31129;44.810;10.334;2022-12-20T03:16:17;102119.63;;;6.70
45393;BMP280;31129;44.810;10.334;2022-12-20T03:18:43;102121.53;;;6.77
45393;BMP280;31129;44.810;10.334;2022-12-20T03:21:10;102109.63;;;6.60
45393;BMP280;31129;44.810;10.334;2022-12-20T03:23:36;102109.53;;;6.74
45393;BMP280;31129;44.810;10.334;2022-12-20T03:26:01;102117.72;;;6.67
45393;BMP280;31129;44.810;10.334;2022-12-20T03:28:38;102120.47;;;6.60
45393;BMP280;31129;44.810;10.334;2022-12-20T03:31:05;102102.63;;;6.66
45393;BMP280;31129;44.810;10.334;2022-12-20T03:33:36;102103.34;;;6.70
45393;BMP280;31129;44.810;10.334;2022-12-20T03:36:08;102098.78;;;6.60
45393;BMP280;31129;44.810;10.334;2022-12-20T03:38:33;102103.81;;;6.62
45393;BMP280;31129;44.810;10.334;2022-12-20T03:40:59;102104.16;;;6.67
45393;BMP280;31129;44.810;10.334;2022-12-20T03:43:25;102109.25;;;6.58
45393;BMP280;31129;44.810;10.334;2022-12-20T03:45:50;102103.41;;;6.63
45393;BMP280;31129;44.810;10.334;2022-12-20T03:48:16;102103.00;;;6.65
45393;BMP280;31129;44.810;10.334;2022-12-20T03:50:42;102104.47;;;6.73
45393;BMP280;31129;44.810;10.334;2022-12-20T03:53:08;102107.25;;;6.69
45393;BMP280;31129;44.810;10.334;2022-12-20T03:55:33;102103.00;;;6.65
45393;BMP280;31129;44.810;10.334;2022-12-20T03:58:02;102097.97;;;6.63
45393;BMP280;31129;44.810;10.334;2022-12-20T04:00:31;102103.78;;;6.65
45393;BMP280;31129;44.810;10.334;2022-12-20T04:03:15;102106.53;;;6.58
45393;BMP280;31129;44.810;10.334;2022-12-20T04:05:41;102108.53;;;6.50
45393;BMP280;31129;44.810;10.334;2022-12-20T04:08:09;102097.63;;;6.61
45393;BMP280;31129;44.810;10.334;2022-12-20T04:10:35;102098.38;;;6.62
45393;BMP280;31129;44.810;10.334;2022-12-20T04:13:26;102082.78;;;6.73
45393;BMP280;31129;44.810;10.334;2022-12-20T04:15:51;102086.25;;;6.73
45393;BMP280;31129;44.810;10.334;2022-12-20T04:18:17;102103.31;;;6.77
45393;BMP280;31129;44.810;10.334;2022-12-20T04:20:44;102088.19;;;6.73
45393;BMP280;31129;44.810;10.334;2022-12-20T04:23:19;102091.41;;;6.64
45393;BMP280;31129;44.810;10.334;2022-12-20T04:25:46;102089.78;;;6.74
45393;BMP280;31129;44.810;10.334;2022-12-20T04:28:14;102091.31;;;6.75
45393;BMP280;31129;44.810;10.334;2022-12-20T04:30:40;102090.19;;;6.69
45393;BMP280;31129;44.810;10.334;2022-12-20T04:33:05;102090.63;;;6.64
45393;BMP280;31129;44.810;10.334;2022-12-20T04:35:31;102086.75;;;6.65
45393;BMP280;31129;44.810;10.334;2022-12-20T04:37:57;102087.13;;;6.67
45393;BMP280;31129;44.810;10.334;2022-12-20T04:40:22;102084.72;;;6.76
45393;BMP280;31129;44.810;10.334;2022-12-20T04:42:52;102084.69;;;6.79
45393;BMP280;31129;44.810;10.334;2022-12-20T04:45:18;102075.47;;;6.70
45393;BMP280;31129;44.810;10.334;2022-12-20T04:47:44;102074.25;;;6.74
45393;BMP280;31129;44.810;10.334;2022-12-20T04:50:16;102082.78;;;6.73
45393;BMP280;31129;44.810;10.334;2022-12-20T04:52:43;102080.47;;;6.71
45393;BMP280;31129;44.810;10.334;2022-12-20T04:55:28;102071.16;;;6.72
45393;BMP280;31129;44.810;10.334;2022-12-20T04:57:56;102066.59;;;6.66
45393;BMP280;31129;44.810;10.334;2022-12-20T05:00:21;102066.16;;;6.71
45393;BMP280;31129;44.810;10.334;2022-12-20T05:02:55;102063.38;;;6.78
45393;BMP280;31129;44.810;10.334;2022-12-20T05:05:23;102058.03;;;6.71
45393;BMP280;31129;44.810;10.334;2022-12-20T05:07:51;102063.75;;;6.80
45393;BMP280;31129;44.810;10.334;2022-12-20T05:10:17;102065.78;;;6.69
45393;BMP280;31129;44.810;10.334;2022-12-20T05:12:43;102065.69;;;6.79
45393;BMP280;31129;44.810;10.334;2022-12-20T05:15:15;102071.88;;;6.83
45393;BMP280;31129;44.810;10.334;2022-12-20T05:17:42;102077.63;;;6.89
45393;BMP280;31129;44.810;10.334;2022-12-20T05:20:10;102070.69;;;6.84
45393;BMP280;31129;44.810;10.334;2022-12-20T05:22:38;102085.84;;;6.78
45393;BMP280;31129;44.810;10.334;2022-12-20T05:25:22;102077.63;;;6.85
45393;BMP280;31129;44.810;10.334;2022-12-20T05:28:06;102068.38;;;6.83
45393;BMP280;31129;44.810;10.334;2022-12-20T05:30:34;102075.00;;;6.78
45393;BMP280;31129;44.810;10.334;2022-12-20T05:33:00;102083.53;;;6.77
45393;BMP280;31129;44.810;10.334;2022-12-20T05:35:26;102083.19;;;6.71
45393;BMP280;31129;44.810;10.334;2022-12-20T05:37:58;102065.72;;;6.76
45393;BMP280;31129;44.810;10.334;2022-12-20T05:40:25;102064.97;;;6.75
45393;BMP280;31129;44.810;10.334;2022-12-20T05:42:50;102077.00;;;6.71
45393;BMP280;31129;44.810;10.334;2022-12-20T05:45:17;102071.91;;;6.80
45393;BMP280;31129;44.810;10.334;2022-12-20T05:47:59;102068.38;;;6.83
45393;BMP280;31129;44.810;10.334;2022-12-20T05:50:25;102067.63;;;6.79
45393;BMP280;31129;44.810;10.334;2022-12-20T05:53:22;102068.09;;;6.70
45393;BMP280;31129;44.810;10.334;2022-12-20T05:55:52;102068.78;;;6.81
45393;BMP280;31129;44.810;10.334;2022-12-20T05:58:19;102060.69;;;6.78
45393;BMP280;31129;44.810;10.334;2022-12-20T06:00:52;102066.44;;;6.83
45393;BMP280;31129;44.810;10.334;2022-12-20T06:03:17;102065.34;;;6.77
45393;BMP280;31129;44.810;10.334;2022-12-20T06:05:44;102059.59;;;6.68
45393;BMP280;31129;44.810;10.334;2022-12-20T06:08:18;102047.56;;;6.69
45393;BMP280;31129;44.810;10.334;2022-12-20T06:10:47;102051.38;;;6.79
45393;BMP280;31129;44.810;10.334;2022-12-20T06:13:14;102057.19;;;6.77
45393;BMP280;31129;44.810;10.334;2022-12-20T06:15:39;102057.84;;;6.88
45393;BMP280;31129;44.810;10.334;2022-12-20T06:18:05;102060.59;;;6.85
45393;BMP280;31129;44.810;10.334;2022-12-20T06:20:31;102062.50;;;6.88
45393;BMP280;31129;44.810;10.334;2022-12-20T06:22:59;102060.16;;;6.93
45393;BMP280;31129;44.810;10.334;2022-12-20T06:25:30;102056.69;;;6.89
45393;BMP280;31129;44.810;10.334;2022-12-20T06:27:56;102059.78;;;6.88
45393;BMP280;31129;44.810;10.334;2022-12-20T06:30:22;102060.56;;;6.88
45393;BMP280;31129;44.810;10.334;2022-12-20T06:32:58;102055.94;;;6.85
45393;BMP280;31129;44.810;10.334;2022-12-20T06:35:23;102049.69;;;6.88
45393;BMP280;31129;44.810;10.334;2022-12-20T06:37:51;102060.19;;;6.90
45393;BMP280;31129;44.810;10.334;2022-12-20T06:40:16;102069.50;;;6.89
45393;BMP280;31129;44.810;10.334;2022-12-20T06:42:42;102067.56;;;6.89
45393;BMP280;31129;44.810;10.334;2022-12-20T06:45:09;102058.25;;;6.87
45393;BMP280;31129;44.810;10.334;2022-12-20T06:47:35;102064.13;;;6.82
45393;BMP280;31129;44.810;10.334;2022-12-20T06:50:02;102057.94;;;6.81
45393;BMP280;31129;44.810;10.334;2022-12-20T06:52:28;102044.81;;;6.73
45393;BMP280;31129;44.810;10.334;2022-12-20T06:54:55;102052.16;;;6.72
45393;BMP280;31129;44.810;10.334;2022-12-20T06:57:21;102052.53;;;6.78
45393;BMP280;31129;44.810;10.334;2022-12-20T06:59:47;102052.50;;;6.81
45393;BMP280;31129;44.810;10.334;2022-12-20T07:02:13;102061.72;;;6.91
45393;BMP280;31129;44.810;10.334;2022-12-20T07:04:39;102058.41;;;7.10
45393;BMP280;31129;44.810;10.334;2022-12-20T07:07:05;102062.75;;;7.01
45393;BMP280;31129;44.810;10.334;2022-12-20T07:09:31;102076.78;;;6.96
45393;BMP280;31129;44.810;10.334;2022-12-20T07:11:56;102065.66;;;6.83
45393;BMP280;31129;44.810;10.334;2022-12-20T07:14:22;102070.31;;;6.82
45393;BMP280;31129;44.810;10.334;2022-12-20T07:16:47;102072.22;;;6.85
45393;BMP280;31129;44.810;10.334;2022-12-20T07:19:13;102071.03;;;6.86
45393;BMP280;31129;44.810;10.334;2022-12-20T07:21:40;102076.06;;;6.91
45393;BMP280;31129;44.810;10.334;2022-12-20T07:24:06;102074.91;;;6.85
45393;BMP280;31129;44.810;10.334;2022-12-20T07:26:31;102084.59;;;6.86
45393;BMP280;31129;44.810;10.334;2022-12-20T07:28:57;102075.69;;;6.86
45393;BMP280;31129;44.810;10.334;2022-12-20T07:31:22;102086.19;;;6.84
45393;BMP280;31129;44.810;10.334;2022-12-20T07:33:48;102089.19;;;6.97
45393;BMP280;31129;44.810;10.334;2022-12-20T07:36:14;102081.88;;;6.90
45393;BMP280;31129;44.810;10.334;2022-12-20T07:38:42;102089.63;;;6.88
45393;BMP280;31129;44.810;10.334;2022-12-20T07:41:13;102081.56;;;6.81
45393;BMP280;31129;44.810;10.334;2022-12-20T07:43:40;102083.50;;;6.80
45393;BMP280;31129;44.810;10.334;2022-12-20T07:46:06;102079.53;;;6.88
45393;BMP280;31129;44.810;10.334;2022-12-20T07:48:32;102090.84;;;6.83
45393;BMP280;31129;44.810;10.334;2022-12-20T07:51:05;102096.72;;;6.78
45393;BMP280;31129;44.810;10.334;2022-12-20T07:53:33;102084.19;;;6.91
45393;BMP280;31129;44.810;10.334;2022-12-20T07:56:00;102092.66;;;6.97
45393;BMP280;31129;44.810;10.334;2022-12-20T07:58:28;102077.47;;;7.03
45393;BMP280;31129;44.810;10.334;2022-12-20T08:00:55;102084.16;;;6.95
45393;BMP280;31129;44.810;10.334;2022-12-20T08:03:27;102097.75;;;6.91
45393;BMP280;31129;44.810;10.334;2022-12-20T08:05:58;102101.25;;;6.92
45393;BMP280;31129;44.810;10.334;2022-12-20T08:08:25;102097.00;;;6.91
45393;BMP280;31129;44.810;10.334;2022-12-20T08:10:51;102104.34;;;6.90
45393;BMP280;31129;44.810;10.334;2022-12-20T08:13:17;102099.69;;;6.87
45393;BMP280;31129;44.810;10.334;2022-12-20T08:15:42;102087.72;;;6.85
45393;BMP280;31129;44.810;10.334;2022-12-20T08:18:08;102096.28;;;6.83
45393;BMP280;31129;44.810;10.334;2022-12-20T08:20:33;102084.16;;;6.95
45393;BMP280;31129;44.810;10.334;2022-12-20T08:23:02;102091.19;;;6.85
45393;BMP280;31129;44.810;10.334;2022-12-20T08:25:33;102104.75;;;6.89
45393;BMP280;31129;44.810;10.334;2022-12-20T08:27:58;102097.00;;;6.91
45393;BMP280;31129;44.810;10.334;2022-12-20T08:30:27;102074.47;;;6.94
45393;BMP280;31129;44.810;10.334;2022-12-20T08:32:53;102088.09;;;6.90
45393;BMP280;31129;44.810;10.334;2022-12-20T08:35:19;102100.56;;;6.81
45393;BMP280;31129;44.810;10.334;2022-12-20T08:37:44;102097.88;;;6.77
45393;BMP280;31129;44.810;10.334;2022-12-20T08:40:10;102096.31;;;6.80
45393;BMP280;31129;44.810;10.334;2022-12-20T08:42:36;102100.53;;;6.84
45393;BMP280;31129;44.810;10.334;2022-12-20T08:45:03;102090.84;;;6.83
45393;BMP280;31129;44.810;10.334;2022-12-20T08:47:29;102097.50;;;6.75
45393;BMP280;31129;44.810;10.334;2022-12-20T08:49:57;102102.47;;;6.84
45393;BMP280;31129;44.810;10.334;2022-12-20T08:52:22;102093.19;;;6.81
45393;BMP280;31129;44.810;10.334;2022-12-20T08:54:48;102083.06;;;6.85
45393;BMP280;31129;44.810;10.334;2022-12-20T08:57:13;102084.59;;;6.90
45393;BMP280;31129;44.810;10.334;2022-12-20T08:59:39;102102.00;;;6.92
45393;BMP280;31129;44.810;10.334;2022-12-20T09:02:04;102094.69;;;6.89
45393;BMP280;31129;44.810;10.334;2022-12-20T09:04:30;102098.06;;;6.97
45393;BMP280;31129;44.810;10.334;2022-12-20T09:06:56;102090.03;;;6.90
45393;BMP280;31129;44.810;10.334;2022-12-20T09:09:22;102094.28;;;6.87
45393;BMP280;31129;44.810;10.334;2022-12-20T09:11:47;102085.66;;;7.00
45393;BMP280;31129;44.810;10.334;2022-12-20T09:14:12;102089.91;;;7.04
45393;BMP280;31129;44.810;10.334;2022-12-20T09:16:38;102098.34;;;7.10
45393;BMP280;31129;44.810;10.334;2022-12-20T09:19:09;102106.19;;;7.04
45393;BMP280;31129;44.810;10.334;2022-12-20T09:21:36;102091.44;;;7.05
45393;BMP280;31129;44.810;10.334;2022-12-20T09:24:01;102080.19;;;7.03
45393;BMP280;31129;44.810;10.334;2022-12-20T09:26:27;102082.50;;;7.08
45393;BMP280;31129;44.810;10.334;2022-12-20T09:28:53;102076.56;;;7.17
45393;BMP280;31129;44.810;10.334;2022-12-20T09:31:22;102092.00;;;7.23
45393;BMP280;31129;44.810;10.334;2022-12-20T09:33:48;102082.94;;;7.37
45393;BMP280;31129;44.810;10.334;2022-12-20T09:36:17;102076.41;;;7.31
45393;BMP280;31129;44.810;10.334;2022-12-20T09:38:43;102078.28;;;7.34
45393;BMP280;31129;44.810;10.334;2022-12-20T09:43:43;102068.44;;;7.51
45393;BMP280;31129;44.810;10.334;2022-12-20T09:46:13;102081.22;;;7.54
45393;BMP280;31129;44.810;10.334;2022-12-20T09:48:39;102084.19;;;7.63
45393;BMP280;31129;44.810;10.334;2022-12-20T09:56:27;102075.41;;;7.52
45393;BMP280;31129;44.810;10.334;2022-12-20T09:59:07;102064.19;;;7.50
45393;BMP280;31129;44.810;10.334;2022-12-20T10:01:35;102067.22;;;7.55
45393;BMP280;31129;44.810;10.334;2022-12-20T10:04:25;102068.75;;;7.56
45393;BMP280;31129;44.810;10.334;2022-12-20T10:23:48;102039.59;;;7.60
45393;BMP280;31129;44.810;10.334;2022-12-20T10:26:16;102050.03;;;7.62
45393;BMP280;31129;44.810;10.334;2022-12-20T10:28:41;102048.97;;;7.56
45393;BMP280;31129;44.810;10.334;2022-12-20T10:31:12;102037.22;;;7.63
45393;BMP280;31129;44.810;10.334;2022-12-20T10:33:41;102049.69;;;7.60
45393;BMP280;31129;44.810;10.334;2022-12-20T10:36:18;102049.31;;;7.58
45393;BMP280;31129;44.810;10.334;2022-12-20T10:38:46;102046.28;;;7.56
45393;BMP280;31129;44.810;10.334;2022-12-20T10:41:30;102030.78;;;7.53
45393;BMP280;31129;44.810;10.334;2022-12-20T10:44:02;102032.56;;;7.63
45393;BMP280;31129;44.810;10.334;2022-12-20T10:46:43;102030.63;;;7.64
45393;BMP280;31129;44.810;10.334;2022-12-20T10:49:38;102027.13;;;7.67
45393;BMP280;31129;44.810;10.334;2022-12-20T10:54:34;102018.44;;;7.75
45393;BMP280;31129;44.810;10.334;2022-12-20T10:57:03;102020.91;;;7.66
45393;BMP280;31129;44.810;10.334;2022-12-20T10:59:38;102012.44;;;7.60
45393;BMP280;31129;44.810;10.334;2022-12-20T11:02:39;101998.25;;;7.46
45393;BMP280;31129;44.810;10.334;2022-12-20T11:07:39;101999.81;;;7.47
45393;BMP280;31129;44.810;10.334;2022-12-20T11:10:20;101992.81;;;7.46
45393;BMP280;31129;44.810;10.334;2022-12-20T11:13:00;101987.00;;;7.47
45393;BMP280;31129;44.810;10.334;2022-12-20T11:15:33;101987.75;;;7.48
45393;BMP280;31129;44.810;10.334;2022-12-20T11:18:14;101984.63;;;7.53
45393;BMP280;31129;44.810;10.334;2022-12-20T11:20:45;101975.28;;;7.54
45393;BMP280;31129;44.810;10.334;2022-12-20T11:34:57;101957.47;;;7.49
45393;BMP280;31129;44.810;10.334;2022-12-20T11:37:32;101947.00;;;7.51
45393;BMP280;31129;44.810;10.334;2022-12-20T11:40:23;101944.69;;;7.50
45393;BMP280;31129;44.810;10.334;2022-12-20T11:43:09;101945.47;;;7.50
45393;BMP280;31129;44.810;10.334;2022-12-20T11:46:03;101940.06;;;7.47
45393;BMP280;31129;44.810;10.334;2022-12-20T11:51:24;101942.84;;;7.43
45393;BMP280;31129;44.810;10.334;2022-12-20T11:56:35;101922.00;;;7.37
45393;BMP280;31129;44.810;10.334;2022-12-20T11:59:06;101916.75;;;7.49
45393;BMP280;31129;44.810;10.334;2022-12-20T12:01:42;101910.13;;;7.54
45393;BMP280;31129;44.810;10.334;2022-12-20T12:07:03;101901.84;;;7.61
45393;BMP280;31129;44.810;10.334;2022-12-20T12:09:36;101903.22;;;7.73
45393;BMP280;31129;44.810;10.334;2022-12-20T12:12:11;101888.88;;;7.72
45393;BMP280;31129;44.810;10.334;2022-12-20T12:17:25;101896.78;;;7.63
45393;BMP280;31129;44.810;10.334;2022-12-20T12:19:55;101897.22;;;7.85
45393;BMP280;31129;44.810;10.334;2022-12-20T12:22:30;101891.13;;;7.77
45393;BMP280;31129;44.810;10.334;2022-12-20T12:25:29;101886.28;;;7.65
45393;BMP280;31129;44.810;10.334;2022-12-20T12:27:55;101886.66;;;7.67
45393;BMP280;31129;44.810;10.334;2022-12-20T12:30:21;101884.91;;;7.77
45393;BMP280;31129;44.810;10.334;2022-12-20T12:32:57;101881.84;;;7.75
45393;BMP280;31129;44.810;10.334;2022-12-20T12:35:46;101880.91;;;7.85
45393;BMP280;31129;44.810;10.334;2022-12-20T12:44:45;101883.22;;;7.86
45393;BMP280;31129;44.810;10.334;2022-12-20T12:46:39;101879.06;;;7.78
45393;BMP280;31129;44.810;10.334;2022-12-20T12:49:11;101883.28;;;7.79
45393;BMP280;31129;44.810;10.334;2022-12-20T12:51:41;101890.00;;;7.75
45393;BMP280;31129;44.810;10.334;2022-12-20T13:04:22;101874.56;;;8.15
45393;BMP280;31129;44.810;10.334;2022-12-20T13:11:50;101872.16;;;7.97
45393;BMP280;31129;44.810;10.334;2022-12-20T13:16:43;101846.00;;;7.83
45393;BMP280;31129;44.810;10.334;2022-12-20T13:19:16;101843.06;;;7.94
45393;BMP280;31129;44.810;10.334;2022-12-20T13:21:46;101845.19;;;7.86
45393;BMP280;31129;44.810;10.334;2022-12-20T13:26:56;101849.91;;;7.82
45393;BMP280;31129;44.810;10.334;2022-12-20T13:29:27;101843.69;;;7.82
45393;BMP280;31129;44.810;10.334;2022-12-20T13:31:57;101838.38;;;7.75
45393;BMP280;31129;44.810;10.334;2022-12-20T13:34:55;101844.13;;;7.80
45393;BMP280;31129;44.810;10.334;2022-12-20T13:37:27;101831.66;;;7.83
45393;BMP280;31129;44.810;10.334;2022-12-20T13:39:54;101826.22;;;7.83
45393;BMP280;31129;44.810;10.334;2022-12-20T13:42:36;101831.66;;;7.83
45393;BMP280;31129;44.810;10.334;2022-12-20T13:45:08;101833.09;;;7.68
45393;BMP280;31129;44.810;10.334;2022-12-20T13:47:45;101832.59;;;7.73
45393;BMP280;31129;44.810;10.334;2022-12-20T13:50:23;101823.16;;;7.81
45393;BMP280;31129;44.810;10.334;2022-12-20T13:52:53;101824.03;;;7.74
45393;BMP280;31129;44.810;10.334;2022-12-20T13:55:37;101821.78;;;7.69
45393;BMP280;31129;44.810;10.334;2022-12-20T13:58:12;101814.50;;;7.66
45393;BMP280;31129;44.810;10.334;2022-12-20T14:00:38;101822.44;;;7.77
45393;BMP280;31129;44.810;10.334;2022-12-20T14:05:43;101819.19;;;7.85
45393;BMP280;31129;44.810;10.334;2022-12-20T14:08:15;101816.16;;;7.80
45393;BMP280;31129;44.810;10.334;2022-12-20T14:10:41;101825.81;;;7.84
45393;BMP280;31129;44.810;10.334;2022-12-20T14:13:24;101820.25;;;7.68
45393;BMP280;31129;44.810;10.334;2022-12-20T14:15:51;101812.09;;;7.68
45393;BMP280;31129;44.810;10.334;2022-12-20T14:18:22;101809.94;;;7.79
45393;BMP280;31129;44.810;10.334;2022-12-20T14:20:55;101806.84;;;7.81
45393;BMP280;31129;44.810;10.334;2022-12-20T14:25:59;101803.66;;;7.86
45393;BMP280;31129;44.810;10.334;2022-12-20T14:28:29;101805.28;;;7.80
45393;BMP280;31129;44.810;10.334;2022-12-20T14:30:59;101801.75;;;7.83
45393;BMP280;31129;44.810;10.334;2022-12-20T14:33:34;101802.81;;;7.89
45393;BMP280;31129;44.810;10.334;2022-12-20T14:36:26;101794.31;;;7.87
45393;BMP280;31129;44.810;10.334;2022-12-20T14:38:52;101801.69;;;7.86
45393;BMP280;31129;44.810;10.334;2022-12-20T14:41:29;101795.50;;;7.86
45393;BMP280;31129;44.810;10.334;2022-12-20T14:46:31;101797.03;;;7.87
45393;BMP280;31129;44.810;10.334;2022-12-20T14:51:44;101781.84;;;7.89
45393;BMP280;31129;44.810;10.334;2022-12-20T14:54:19;101778.69;;;7.71
45393;BMP280;31129;44.810;10.334;2022-12-20T14:56:47;101782.44;;;7.77
45393;BMP280;31129;44.810;10.334;2022-12-20T14:59:23;101771.53;;;7.81
45393;BMP280;31129;44.810;10.334;2022-12-20T15:01:50;101777.09;;;7.74
45393;BMP280;31129;44.810;10.334;2022-12-20T15:04:29;101770.47;;;7.75
45393;BMP280;31129;44.810;10.334;2022-12-20T15:06:56;101769.34;;;7.72
45393;BMP280;31129;44.810;10.334;2022-12-20T15:09:21;101754.03;;;7.82
45393;BMP280;31129;44.810;10.334;2022-12-20T15:11:47;101752.91;;;7.79
45393;BMP280;31129;44.810;10.334;2022-12-20T15:14:49;101756.63;;;7.89
45393;BMP280;31129;44.810;10.334;2022-12-20T15:17:14;101758.84;;;7.74
45393;BMP280;31129;44.810;10.334;2022-12-20T15:19:40;101764.75;;;7.69
45393;BMP280;31129;44.810;10.334;2022-12-20T15:22:13;101768.88;;;7.77
45393;BMP280;31129;44.810;10.334;2022-12-20T15:24:40;101764.00;;;7.88
45393;BMP280;31129;44.810;10.334;2022-12-20T15:27:08;101769.63;;;7.78
45393;BMP280;31129;44.810;10.334;2022-12-20T15:29:36;101772.56;;;7.67
45393;BMP280;31129;44.810;10.334;2022-12-20T15:32:16;101767.75;;;7.75
45393;BMP280;31129;44.810;10.334;2022-12-20T15:34:46;101768.81;;;7.81
45393;BMP280;31129;44.810;10.334;2022-12-20T15:37:14;101773.59;;;7.73
45393;BMP280;31129;44.810;10.334;2022-12-20T15:39:40;101780.91;;;7.76
45393;BMP280;31129;44.810;10.334;2022-12-20T15:42:12;101780.72;;;7.67
45393;BMP280;31129;44.810;10.334;2022-12-20T15:44:40;101774.13;;;7.65
45393;BMP280;31129;44.810;10.334;2022-12-20T15:47:11;101781.31;;;7.55
45393;BMP280;31129;44.810;10.334;2022-12-20T15:49:37;101794.03;;;7.58
45393;BMP280;31129;44.810;10.334;2022-12-20T15:52:02;101790.06;;;7.63
45393;BMP280;31129;44.810;10.334;2022-12-20T15:54:30;101785.41;;;7.63
45393;BMP280;31129;44.810;10.334;2022-12-20T15:57:05;101796.41;;;7.56
45393;BMP280;31129;44.810;10.334;2022-12-20T15:59:34;101793.94;;;7.65
45393;BMP280;31129;44.810;10.334;2022-12-20T16:02:00;101791.13;;;7.69
45393;BMP280;31129;44.810;10.334;2022-12-20T16:04:26;101781.91;;;7.66
45393;BMP280;31129;44.810;10.334;2022-12-20T16:06:53;101783.84;;;7.66
45393;BMP280;31129;44.810;10.334;2022-12-20T16:09:19;101780.28;;;7.69